Time;durP1;ratioP1;P1;durP2;ratioP2;P2;SDS_P1;SDS_P2;PMS_P1;PMS_P2;Temp;Humidity;BMP_temperature;BMP_pressure;BME280_temperature;BME280_humidity;BME280_pressure;Samples;Min_cycle;Max_cycle;Signal;HPM_P1;HPM_P2
2023/05/14 00:01:57;;;;;;;20.30;14.77;;;17.40;99.90;;;;;;5054270;28;20389;-73
2023/05/14 00:04:23;;;;;;;15.90;14.10;;;17.40;99.90;;;;;;5050324;28;20086;-72
2023/05/14 00:06:49;;;;;;;16.23;14.23;;;17.40;99.90;;;;;;5056536;28;20456;-72
2023/05/14 00:09:15;;;;;;;16.02;14.38;;;17.40;99.90;;;;;;5034817;28;20029;-72
2023/05/14 00:11:40;;;;;;;16.95;15.18;;;17.40;99.90;;;;;;5054746;28;20031;-73
2023/05/14 00:14:06;;;;;;;18.02;14.20;;;17.20;99.90;;;;;;5054089;28;20029;-72
2023/05/14 00:16:31;;;;;;;16.50;14.75;;;17.20;99.90;;;;;;5036891;28;20396;-73
2023/05/14 00:18:57;;;;;;;16.40;14.20;;;17.20;99.90;;;;;;5054779;28;20492;-72
2023/05/14 00:21:23;;;;;;;18.70;15.50;;;17.20;99.90;;;;;;5052889;28;20093;-73
2023/05/14 00:23:48;;;;;;;17.88;16.00;;;17.20;99.90;;;;;;5053024;28;20489;-72
2023/05/14 00:26:15;;;;;;;17.55;14.63;;;17.20;99.90;;;;;;5051939;28;20420;-72
2023/05/14 00:28:40;;;;;;;18.98;16.20;;;17.20;99.90;;;;;;5052510;28;20024;-71
2023/05/14 00:31:06;;;;;;;17.75;15.88;;;17.10;99.90;;;;;;5054969;28;20020;-72
2023/05/14 00:33:31;;;;;;;18.42;16.60;;;17.10;99.90;;;;;;5052915;28;20493;-74
2023/05/14 00:35:57;;;;;;;22.05;17.17;;;17.10;99.90;;;;;;5048818;28;20514;-74
2023/05/14 00:38:26;;;;;;;18.80;16.88;;;17.10;99.90;;;;;;5051296;28;20086;-74
2023/05/14 00:40:52;;;;;;;18.42;16.55;;;17.00;99.90;;;;;;5053111;28;20481;-74
2023/05/14 00:43:21;;;;;;;18.23;16.38;;;17.00;99.90;;;;;;5055586;28;20040;-74
2023/05/14 00:45:50;;;;;;;17.75;15.88;;;17.00;99.90;;;;;;5055440;28;20516;-74
2023/05/14 00:48:16;;;;;;;19.25;17.52;;;17.00;99.90;;;;;;5052762;28;20472;-73
2023/05/14 00:50:42;;;;;;;19.95;17.98;;;17.00;99.90;;;;;;5052221;28;20393;-73
2023/05/14 00:53:09;;;;;;;21.70;16.38;;;16.90;99.90;;;;;;5052494;28;20082;-74
2023/05/14 00:55:39;;;;;;;23.58;16.50;;;16.90;99.90;;;;;;5053188;28;20036;-74
2023/05/14 00:58:11;;;;;;;20.95;17.75;;;16.90;99.90;;;;;;5038322;28;20460;-74
2023/05/14 01:00:37;;;;;;;18.88;15.70;;;16.80;99.90;;;;;;5051960;28;20120;-74
2023/05/14 01:03:05;;;;;;;22.23;18.83;;;16.80;99.90;;;;;;5052852;28;20009;-74
2023/05/14 01:05:57;;;;;;;19.42;17.33;;;16.80;99.90;;;;;;5035219;28;20032;-73
2023/05/14 01:08:40;;;;;;;21.48;19.38;;;16.70;99.90;;;;;;5053334;28;20024;-74
2023/05/14 01:11:20;;;;;;;19.13;16.88;;;16.70;99.90;;;;;;5035892;28;20021;-74
2023/05/14 01:14:25;;;;;;;19.55;17.45;;;16.80;99.90;;;;;;5055086;28;20043;-74
2023/05/14 01:16:57;;;;;;;19.95;17.73;;;16.70;99.90;;;;;;5053091;28;20035;-74
2023/05/14 01:19:41;;;;;;;20.60;18.50;;;16.70;99.90;;;;;;5059027;28;20151;-74
2023/05/14 01:22:06;;;;;;;26.05;18.75;;;16.70;99.90;;;;;;5053832;28;20385;-74
2023/05/14 01:24:32;;;;;;;22.02;18.52;;;16.60;99.90;;;;;;5044162;28;20037;-74
2023/05/14 01:27:30;;;;;;;22.90;18.90;;;16.50;99.90;;;;;;5053612;28;22388;-73
2023/05/14 01:30:28;;;;;;;19.05;17.08;;;16.50;99.90;;;;;;5056621;28;20056;-73
2023/05/14 01:32:58;;;;;;;20.80;18.65;;;16.50;99.90;;;;;;5040974;28;20559;-73
2023/05/14 01:35:28;;;;;;;22.70;18.67;;;16.50;99.90;;;;;;5056301;28;20047;-73
2023/05/14 01:37:57;;;;;;;22.75;20.45;;;16.40;99.90;;;;;;5058998;28;20025;-73
2023/05/14 01:40:24;;;;;;;20.83;18.52;;;16.40;99.90;;;;;;5055484;28;20033;-73
2023/05/14 01:42:53;;;;;;;24.02;18.80;;;16.40;99.90;;;;;;5055690;28;20162;-77
2023/05/14 01:45:22;;;;;;;22.27;20.02;;;16.40;99.90;;;;;;5053938;28;20033;-74
2023/05/14 01:47:48;;;;;;;20.65;18.45;;;16.40;99.90;;;;;;5041095;28;20009;-76
2023/05/14 01:50:14;;;;;;;23.65;19.35;;;16.30;99.90;;;;;;5046025;28;20033;-73
2023/05/14 01:52:40;;;;;;;23.00;20.13;;;16.30;99.90;;;;;;5055509;28;20090;-74
2023/05/14 01:55:06;;;;;;;20.90;18.75;;;16.30;99.90;;;;;;5060662;28;20053;-72
2023/05/14 01:57:32;;;;;;;23.20;19.52;;;16.20;99.90;;;;;;5054751;28;20389;-72
2023/05/14 01:59:58;;;;;;;22.33;19.45;;;16.20;99.90;;;;;;5053307;28;20037;-74
2023/05/14 02:02:24;;;;;;;22.25;19.38;;;16.20;99.90;;;;;;5061979;28;20024;-72
2023/05/14 02:04:50;;;;;;;25.55;21.52;;;16.10;99.90;;;;;;5055652;28;20036;-72
2023/05/14 02:07:16;;;;;;;24.10;20.90;;;16.10;99.90;;;;;;5053501;28;20025;-74
2023/05/14 02:09:41;;;;;;;23.80;21.10;;;16.10;99.90;;;;;;5042298;28;20079;-74
2023/05/14 02:12:08;;;;;;;21.95;18.48;;;16.10;99.90;;;;;;5058901;28;20012;-74
2023/05/14 02:14:34;;;;;;;19.95;17.90;;;16.00;99.90;;;;;;5055863;28;20091;-74
2023/05/14 02:17:00;;;;;;;21.02;18.83;;;16.00;99.90;;;;;;5063183;28;20020;-73
2023/05/14 02:19:26;;;;;;;22.38;20.13;;;16.00;99.90;;;;;;5055653;28;20112;-74
2023/05/14 02:21:51;;;;;;;23.70;21.20;;;15.90;99.90;;;;;;5056292;28;20116;-74
2023/05/14 02:24:17;;;;;;;20.25;18.00;;;15.80;99.90;;;;;;5056444;28;20528;-74
2023/05/14 02:26:43;;;;;;;22.33;19.83;;;15.80;99.90;;;;;;5053783;28;20513;-74
2023/05/14 02:29:08;;;;;;;20.73;18.52;;;15.80;99.90;;;;;;5066299;28;20032;-74
2023/05/14 02:31:34;;;;;;;21.67;19.60;;;15.80;99.90;;;;;;5058329;28;20028;-74
2023/05/14 02:34:00;;;;;;;22.48;20.17;;;15.80;99.90;;;;;;5058626;28;20032;-74
2023/05/14 02:36:26;;;;;;;19.67;17.35;;;15.80;99.90;;;;;;5059422;28;20017;-74
2023/05/14 02:38:52;;;;;;;20.33;17.77;;;15.70;99.90;;;;;;5058968;28;20374;-74
2023/05/14 02:41:18;;;;;;;19.58;17.52;;;15.70;99.90;;;;;;5057566;28;20074;-74
2023/05/14 02:43:43;;;;;;;20.73;18.70;;;15.70;99.90;;;;;;5046297;28;20780;-74
2023/05/14 02:46:09;;;;;;;22.33;19.50;;;15.70;99.90;;;;;;5062769;28;20036;-73
2023/05/14 02:48:35;;;;;;;20.05;17.35;;;15.60;99.90;;;;;;5058657;28;20111;-73
2023/05/14 02:51:01;;;;;;;21.40;19.15;;;15.60;99.90;;;;;;5058471;28;20025;-73
2023/05/14 02:53:27;;;;;;;21.38;18.80;;;15.60;99.90;;;;;;5059400;28;20100;-73
2023/05/14 02:55:52;;;;;;;23.63;19.38;;;15.60;99.90;;;;;;5060462;28;20488;-73
2023/05/14 02:58:18;;;;;;;20.90;18.65;;;15.50;99.90;;;;;;5057588;28;20040;-74
2023/05/14 03:00:44;;;;;;;20.77;18.00;;;15.50;99.90;;;;;;5058249;28;20045;-75
2023/05/14 03:03:09;;;;;;;24.42;20.10;;;15.50;99.90;;;;;;5058085;28;20108;-73
2023/05/14 03:05:35;;;;;;;23.25;19.73;;;15.50;99.90;;;;;;5059089;28;20435;-73
2023/05/14 03:08:01;;;;;;;22.08;19.50;;;15.40;99.90;;;;;;5058863;28;20503;-74
2023/05/14 03:10:27;;;;;;;24.83;21.10;;;15.30;99.90;;;;;;5060378;28;20480;-75
2023/05/14 03:12:52;;;;;;;27.20;21.83;;;15.40;99.90;;;;;;5062949;28;20024;-74
2023/05/14 03:15:18;;;;;;;21.92;19.63;;;15.30;99.90;;;;;;5059858;28;20524;-75
2023/05/14 03:17:44;;;;;;;22.13;19.58;;;15.30;99.90;;;;;;5059202;28;20478;-75
2023/05/14 03:20:11;;;;;;;21.90;19.40;;;15.30;99.90;;;;;;5063331;28;20037;-74
2023/05/14 03:22:36;;;;;;;23.20;20.65;;;15.20;99.90;;;;;;5056599;28;20039;-76
2023/05/14 03:25:02;;;;;;;23.85;20.85;;;15.20;99.90;;;;;;5064266;28;20399;-78
2023/05/14 03:27:28;;;;;;;24.40;20.70;;;15.20;99.90;;;;;;5058155;28;20019;-75
2023/05/14 03:29:54;;;;;;;24.35;21.48;;;15.10;99.90;;;;;;5045533;28;20033;-75
2023/05/14 03:32:20;;;;;;;22.42;20.00;;;15.10;99.90;;;;;;5059265;28;20032;-74
2023/05/14 03:34:45;;;;;;;27.33;20.13;;;15.10;99.90;;;;;;5055596;28;20036;-77
2023/05/14 03:37:11;;;;;;;24.00;20.42;;;15.10;99.90;;;;;;5061785;28;20021;-75
2023/05/14 03:39:37;;;;;;;24.73;20.80;;;15.00;99.90;;;;;;5057448;28;20045;-73
2023/05/14 03:42:03;;;;;;;21.30;19.10;;;15.10;99.90;;;;;;5037982;28;20033;-74
2023/05/14 03:44:28;;;;;;;20.95;18.63;;;15.10;99.90;;;;;;5040908;28;20040;-76
2023/05/14 03:46:54;;;;;;;26.48;21.05;;;15.10;99.90;;;;;;5056500;28;20465;-76
2023/05/14 03:49:20;;;;;;;24.33;21.08;;;15.00;99.90;;;;;;5058620;28;20468;-74
2023/05/14 03:51:46;;;;;;;22.63;20.23;;;15.10;99.90;;;;;;5057911;28;20029;-74
2023/05/14 03:54:11;;;;;;;22.02;19.30;;;15.00;99.90;;;;;;5060220;28;20029;-73
2023/05/14 03:56:37;;;;;;;25.73;21.48;;;15.00;99.90;;;;;;5056345;28;20039;-74
2023/05/14 03:59:03;;;;;;;21.08;18.83;;;14.90;99.90;;;;;;5058564;28;20424;-76
2023/05/14 04:01:28;;;;;;;22.52;19.95;;;15.00;99.90;;;;;;5043760;28;20025;-72
2023/05/14 04:03:54;;;;;;;22.30;19.92;;;14.90;99.90;;;;;;5057295;28;20393;-74
2023/05/14 04:06:20;;;;;;;22.00;19.52;;;14.90;99.90;;;;;;5059990;28;20063;-75
2023/05/14 04:08:45;;;;;;;22.65;20.23;;;14.90;99.90;;;;;;5056456;28;20021;-74
2023/05/14 04:11:11;;;;;;;25.48;20.58;;;14.90;99.90;;;;;;5060567;28;20393;-74
2023/05/14 04:13:37;;;;;;;24.13;21.55;;;14.80;99.90;;;;;;5044301;28;20028;-72
2023/05/14 04:16:02;;;;;;;23.45;20.35;;;14.80;99.90;;;;;;5057026;28;20041;-74
2023/05/14 04:18:28;;;;;;;25.65;20.05;;;14.80;99.90;;;;;;5055958;28;20067;-74
2023/05/14 04:20:54;;;;;;;23.92;18.80;;;14.80;99.90;;;;;;5057509;28;20037;-74
2023/05/14 04:23:20;;;;;;;27.35;22.55;;;14.80;99.90;;;;;;5059836;28;20432;-74
2023/05/14 04:25:46;;;;;;;23.65;21.13;;;14.80;99.90;;;;;;5059039;28;20466;-74
2023/05/14 04:28:12;;;;;;;30.15;21.33;;;14.70;99.90;;;;;;5046001;28;20036;-73
2023/05/14 04:30:37;;;;;;;24.42;20.00;;;14.70;99.90;;;;;;5056670;28;20028;-75
2023/05/14 04:33:03;;;;;;;28.20;22.83;;;14.70;99.90;;;;;;5061813;28;20465;-75
2023/05/14 04:35:29;;;;;;;28.15;25.15;;;14.70;99.90;;;;;;5056633;28;20079;-73
2023/05/14 04:37:54;;;;;;;25.45;22.50;;;14.70;99.90;;;;;;5053652;28;20504;-75
2023/05/14 04:40:21;;;;;;;29.30;22.55;;;14.70;99.90;;;;;;5061291;28;20063;-73
2023/05/14 04:42:47;;;;;;;28.60;23.30;;;14.70;99.90;;;;;;5054164;28;20040;-75
2023/05/14 04:45:13;;;;;;;30.27;24.90;;;14.70;99.90;;;;;;5061171;28;20036;-73
2023/05/14 04:47:39;;;;;;;31.70;27.60;;;14.70;99.90;;;;;;5059527;28;20024;-75
2023/05/14 04:50:05;;;;;;;25.15;22.30;;;14.70;99.90;;;;;;5058235;28;20101;-77
2023/05/14 04:52:32;;;;;;;30.85;26.27;;;14.70;99.90;;;;;;5061409;28;20032;-74
2023/05/14 04:54:58;;;;;;;30.73;26.75;;;14.70;99.90;;;;;;5053432;28;20025;-75
2023/05/14 04:57:23;;;;;;;32.72;28.02;;;14.70;99.90;;;;;;5061536;28;20040;-73
2023/05/14 04:59:49;;;;;;;32.42;27.85;;;14.70;99.90;;;;;;5048723;28;20497;-75
2023/05/14 05:02:14;;;;;;;32.00;28.30;;;14.70;99.90;;;;;;5062478;28;20165;-75
2023/05/14 05:04:40;;;;;;;37.90;25.30;;;14.80;99.90;;;;;;5058238;28;20388;-75
2023/05/14 05:07:06;;;;;;;31.73;24.50;;;14.80;99.90;;;;;;5060258;28;20029;-75
2023/05/14 05:09:31;;;;;;;36.53;29.83;;;14.80;99.90;;;;;;5064577;28;20095;-74
2023/05/14 05:11:57;;;;;;;33.80;26.80;;;14.80;99.90;;;;;;5059065;28;20021;-74
2023/05/14 05:14:23;;;;;;;33.35;27.00;;;14.80;99.90;;;;;;5043036;28;20041;-76
2023/05/14 05:16:50;;;;;;;32.10;27.73;;;14.80;99.90;;;;;;5055864;28;20025;-75
2023/05/14 05:19:15;;;;;;;34.83;29.00;;;14.90;99.90;;;;;;5058431;28;20465;-75
2023/05/14 05:21:41;;;;;;;33.15;27.88;;;14.90;99.90;;;;;;5054079;28;20063;-74
2023/05/14 05:24:07;;;;;;;35.60;28.27;;;14.90;99.90;;;;;;5064195;28;20032;-74
2023/05/14 05:26:35;;;;;;;30.90;26.85;;;15.00;99.90;;;;;;5060758;28;20025;-76
2023/05/14 05:29:03;;;;;;;36.63;30.50;;;15.00;99.90;;;;;;5051065;28;20025;-77
2023/05/14 05:31:29;;;;;;;42.75;33.88;;;15.00;99.90;;;;;;5059722;28;20041;-73
2023/05/14 05:33:54;;;;;;;39.85;31.90;;;15.00;99.90;;;;;;5061021;28;20033;-75
2023/05/14 05:36:20;;;;;;;36.08;29.98;;;15.10;99.90;;;;;;5039456;28;20025;-74
2023/05/14 05:38:46;;;;;;;39.72;32.28;;;15.10;99.90;;;;;;5039595;28;20029;-75
2023/05/14 05:41:12;;;;;;;38.22;32.17;;;15.10;99.90;;;;;;5058454;28;20028;-73
2023/05/14 05:43:37;;;;;;;43.17;35.05;;;15.10;99.90;;;;;;5057579;28;20021;-73
2023/05/14 05:46:03;;;;;;;43.42;33.83;;;15.10;99.90;;;;;;5059508;28;20435;-73
2023/05/14 05:48:29;;;;;;;42.58;35.58;;;15.20;99.90;;;;;;5044113;28;20432;-73
2023/05/14 05:50:54;;;;;;;40.63;33.22;;;15.20;99.90;;;;;;5056235;28;20098;-76
2023/05/14 05:53:20;;;;;;;43.90;33.92;;;15.20;99.90;;;;;;5056026;28;20055;-77
2023/05/14 05:55:46;;;;;;;45.03;37.47;;;15.30;99.90;;;;;;5064848;28;20025;-74
2023/05/14 05:58:14;;;;;;;45.80;35.30;;;15.30;99.90;;;;;;5056296;28;20487;-74
2023/05/14 06:00:40;;;;;;;50.47;37.53;;;15.30;99.90;;;;;;5056991;28;20029;-75
2023/05/14 06:03:06;;;;;;;42.78;34.20;;;15.30;99.90;;;;;;5055168;28;20028;-74
2023/05/14 06:05:32;;;;;;;47.30;34.08;;;15.30;99.90;;;;;;5057519;28;20021;-74
2023/05/14 06:07:57;;;;;;;43.25;35.22;;;15.40;99.90;;;;;;5057560;28;20389;-75
2023/05/14 06:10:23;;;;;;;38.05;32.17;;;15.40;99.90;;;;;;5062048;28;20044;-78
2023/05/14 06:12:49;;;;;;;39.05;30.65;;;15.40;99.90;;;;;;5059871;28;20112;-73
2023/05/14 06:15:14;;;;;;;38.10;31.40;;;15.50;99.90;;;;;;5060966;28;20115;-74
2023/05/14 06:17:40;;;;;;;45.22;34.13;;;15.40;99.90;;;;;;5059459;28;20074;-75
2023/05/14 06:20:07;;;;;;;41.83;34.03;;;15.50;99.90;;;;;;5066861;28;20128;-74
2023/05/14 06:22:33;;;;;;;45.80;34.45;;;15.50;99.90;;;;;;5058092;28;20020;-74
2023/05/14 06:24:59;;;;;;;43.70;32.90;;;15.50;99.90;;;;;;5061394;28;20388;-73
2023/05/14 06:27:25;;;;;;;43.85;35.67;;;15.50;99.90;;;;;;5058852;28;20029;-75
2023/05/14 06:29:51;;;;;;;41.67;32.78;;;15.50;99.90;;;;;;5061650;28;20036;-77
2023/05/14 06:32:16;;;;;;;42.83;35.17;;;15.60;99.90;;;;;;5042643;28;20079;-74
2023/05/14 06:34:42;;;;;;;43.15;34.15;;;15.60;99.90;;;;;;5058977;28;20024;-75
2023/05/14 06:37:09;;;;;;;45.45;35.17;;;15.60;99.90;;;;;;5060745;28;20028;-75
2023/05/14 06:39:36;;;;;;;37.55;31.85;;;15.70;99.90;;;;;;5070382;28;20059;-75
2023/05/14 06:42:02;;;;;;;40.65;34.67;;;15.70;99.90;;;;;;5061282;28;20025;-78
2023/05/14 06:44:27;;;;;;;42.53;33.17;;;15.80;99.90;;;;;;5060518;28;20473;-75
2023/05/14 06:46:53;;;;;;;39.85;32.03;;;15.80;99.90;;;;;;5069170;28;20524;-74
2023/05/14 06:49:20;;;;;;;40.40;32.58;;;15.80;99.90;;;;;;5059179;28;20131;-74
2023/05/14 06:51:45;;;;;;;42.55;31.25;;;15.90;99.90;;;;;;5059195;28;20385;-74
2023/05/14 06:54:11;;;;;;;37.75;31.33;;;16.00;99.90;;;;;;5060969;28;20021;-75
2023/05/14 06:56:37;;;;;;;38.03;30.48;;;16.10;99.90;;;;;;5055874;28;20029;-74
2023/05/14 06:59:03;;;;;;;39.47;30.83;;;16.20;99.90;;;;;;5061037;28;20051;-74
2023/05/14 07:01:29;;;;;;;44.42;33.95;;;16.30;99.90;;;;;;5055860;28;20134;-75
2023/05/14 07:03:55;;;;;;;40.13;32.63;;;16.30;99.90;;;;;;5059442;28;20036;-76
2023/05/14 07:06:21;;;;;;;41.28;30.10;;;16.50;99.90;;;;;;5038730;28;20063;-75
2023/05/14 07:08:47;;;;;;;38.95;32.00;;;16.60;99.90;;;;;;5064864;28;20020;-74
2023/05/14 07:11:13;;;;;;;35.63;29.48;;;16.70;99.90;;;;;;5065641;28;20025;-76
2023/05/14 07:13:39;;;;;;;37.95;30.67;;;16.90;99.90;;;;;;5054618;28;20028;-75
2023/05/14 07:16:07;;;;;;;38.65;30.45;;;16.90;99.90;;;;;;5059058;28;20468;-74
2023/05/14 07:18:33;;;;;;;37.08;28.90;;;16.90;99.90;;;;;;5066401;28;20013;-75
2023/05/14 07:20:59;;;;;;;34.70;29.10;;;16.90;99.90;;;;;;5063966;28;20123;-75
2023/05/14 07:23:25;;;;;;;37.72;29.60;;;17.00;99.90;;;;;;5057636;28;20451;-74
2023/05/14 07:25:50;;;;;;;38.10;30.63;;;17.00;99.90;;;;;;5060044;28;20029;-75
2023/05/14 07:28:16;;;;;;;37.92;28.77;;;17.10;99.90;;;;;;5057379;28;20025;-75
2023/05/14 07:30:42;;;;;;;34.70;28.45;;;17.20;99.90;;;;;;5056167;28;20032;-75
2023/05/14 07:33:07;;;;;;;33.63;28.02;;;17.30;99.90;;;;;;5058840;28;20021;-74
2023/05/14 07:35:33;;;;;;;39.05;29.67;;;17.40;99.90;;;;;;5055143;28;20032;-76
2023/05/14 07:37:59;;;;;;;36.72;27.67;;;17.50;99.90;;;;;;5063725;28;20508;-76
2023/05/14 07:40:25;;;;;;;36.65;29.98;;;17.60;99.90;;;;;;5069484;28;20052;-75
2023/05/14 07:42:51;;;;;;;33.92;28.35;;;17.60;99.90;;;;;;5042173;28;20025;-74
2023/05/14 07:45:17;;;;;;;32.78;28.15;;;17.60;99.90;;;;;;5043723;28;20037;-76
2023/05/14 07:47:42;;;;;;;33.92;26.80;;;17.70;99.90;;;;;;5058959;28;20486;-74
2023/05/14 07:50:08;;;;;;;33.15;27.42;;;17.90;99.90;;;;;;5061204;28;20078;-74
2023/05/14 07:52:34;;;;;;;34.75;26.70;;;17.90;99.90;;;;;;5058033;28;20024;-74
2023/05/14 07:55:02;;;;;;;33.08;26.10;;;18.00;99.90;;;;;;5064116;28;20496;-73
2023/05/14 07:57:27;;;;;;;29.95;25.58;;;18.00;99.90;;;;;;5056135;28;20036;-74
2023/05/14 07:59:53;;;;;;;31.15;24.42;;;18.00;99.90;;;;;;5059488;28;20508;-75
2023/05/14 08:02:19;;;;;;;33.25;26.23;;;18.10;99.90;;;;;;5057307;28;20044;-76
2023/05/14 08:04:44;;;;;;;31.17;23.10;;;18.10;99.90;;;;;;5044073;28;20047;-73
2023/05/14 08:07:10;;;;;;;32.03;24.67;;;18.30;99.90;;;;;;5057662;28;20079;-74
2023/05/14 08:09:36;;;;;;;29.90;24.33;;;18.40;99.90;;;;;;5057920;28;20021;-75
2023/05/14 08:12:02;;;;;;;30.60;26.02;;;18.50;99.90;;;;;;5059735;28;20052;-73
2023/05/14 08:14:28;;;;;;;30.73;25.15;;;18.50;99.90;;;;;;5058624;28;20039;-73
2023/05/14 08:16:53;;;;;;;29.50;24.27;;;18.60;99.90;;;;;;5056959;28;20091;-73
2023/05/14 08:19:19;;;;;;;26.30;23.25;;;18.70;99.90;;;;;;5057673;28;20033;-73
2023/05/14 08:21:45;;;;;;;31.65;23.80;;;18.80;99.90;;;;;;5058770;28;20029;-73
2023/05/14 08:24:13;;;;;;;29.90;23.23;;;18.90;99.90;;;;;;5041299;28;20052;-75
2023/05/14 08:26:38;;;;;;;35.50;23.63;;;19.00;99.90;;;;;;5037640;28;20047;-75
2023/05/14 08:29:04;;;;;;;30.27;23.65;;;19.00;99.90;;;;;;5058054;28;20036;-75
2023/05/14 08:31:30;;;;;;;27.40;22.60;;;19.00;99.90;;;;;;5054948;28;20471;-72
2023/05/14 08:33:56;;;;;;;28.13;22.42;;;19.10;99.90;;;;;;5054411;28;20050;-75
2023/05/14 08:36:21;;;;;;;28.13;21.67;;;19.30;99.90;;;;;;5056791;28;20103;-75
2023/05/14 08:38:49;;;;;;;26.98;21.13;;;19.40;99.90;;;;;;5053887;28;20040;-75
2023/05/14 08:41:15;;;;;;;28.58;20.98;;;19.60;99.90;;;;;;5059244;28;20021;-76
2023/05/14 08:43:53;;;;;;;27.02;22.15;;;19.70;99.90;;;;;;5058920;28;20029;-73
2023/05/14 08:46:23;;;;;;;25.63;20.27;;;19.90;99.90;;;;;;5058379;28;20033;-73
2023/05/14 08:48:57;;;;;;;28.60;21.92;;;20.10;99.90;;;;;;5047409;28;20038;-73
2023/05/14 08:51:23;;;;;;;27.20;22.17;;;20.10;99.90;;;;;;5050846;28;20063;-75
2023/05/14 08:53:50;;;;;;;25.40;21.30;;;20.20;99.90;;;;;;5040568;28;20085;-74
2023/05/14 08:56:17;;;;;;;22.15;19.52;;;20.30;99.90;;;;;;5043863;28;20024;-76
2023/05/14 08:58:43;;;;;;;24.83;20.05;;;20.40;99.90;;;;;;5056581;28;20036;-76
2023/05/14 09:01:09;;;;;;;21.25;18.17;;;20.50;99.90;;;;;;5061323;28;20433;-76
2023/05/14 09:03:35;;;;;;;25.55;19.88;;;20.60;99.90;;;;;;5054376;28;20025;-76
2023/05/14 09:06:01;;;;;;;22.00;18.77;;;20.80;99.90;;;;;;5058981;28;20158;-75
2023/05/14 09:08:28;;;;;;;22.98;18.40;;;20.90;99.90;;;;;;5038519;28;20071;-79
2023/05/14 09:10:53;;;;;;;19.25;17.13;;;21.00;99.90;;;;;;5057383;28;20024;-76
2023/05/14 09:13:19;;;;;;;28.00;15.65;;;21.00;99.90;;;;;;5058027;28;20028;-75
2023/05/14 09:15:46;;;;;;;20.02;16.67;;;21.10;99.90;;;;;;5056484;28;20135;-75
2023/05/14 09:18:12;;;;;;;22.00;17.92;;;21.20;99.90;;;;;;5053016;28;20025;-75
2023/05/14 09:20:38;;;;;;;22.58;17.48;;;21.40;99.90;;;;;;5053775;28;20035;-76
2023/05/14 09:23:04;;;;;;;22.55;17.55;;;21.40;99.90;;;;;;5056827;28;20370;-75
2023/05/14 09:25:32;;;;;;;21.25;17.27;;;21.60;99.90;;;;;;5065830;28;20048;-79
2023/05/14 09:27:58;;;;;;;21.98;18.40;;;21.70;99.90;;;;;;5043626;28;20032;-75
2023/05/14 09:30:25;;;;;;;23.08;17.80;;;21.80;99.90;;;;;;5031900;28;20017;-75
2023/05/14 09:32:53;;;;;;;22.08;19.35;;;21.90;99.90;;;;;;5050166;28;20029;-77
2023/05/14 09:35:22;;;;;;;20.67;18.40;;;22.10;99.90;;;;;;5049393;28;20024;-78
2023/05/14 09:37:51;;;;;;;18.60;15.88;;;22.30;99.90;;;;;;5052193;28;20094;-77
2023/05/14 09:40:19;;;;;;;19.42;15.23;;;22.30;99.90;;;;;;5051497;28;20036;-77
2023/05/14 09:42:45;;;;;;;18.60;16.67;;;22.40;99.90;;;;;;5054949;28;20031;-78
2023/05/14 09:45:11;;;;;;;17.92;15.60;;;22.50;99.90;;;;;;5053404;28;20029;-79
2023/05/14 09:47:38;;;;;;;19.00;15.18;;;22.60;99.90;;;;;;5054467;28;20025;-77
2023/05/14 09:50:06;;;;;;;17.55;15.40;;;22.70;99.90;;;;;;5056283;28;20978;-77
2023/05/14 09:52:57;;;;;;;16.77;14.73;;;22.80;99.90;;;;;;5054073;28;20025;-78
2023/05/14 09:55:24;;;;;;;17.45;15.65;;;22.90;99.90;;;;;;5053551;28;20021;-78
2023/05/14 09:57:50;;;;;;;15.88;12.73;;;22.90;99.90;;;;;;5052140;28;20135;-78
2023/05/14 10:00:16;;;;;;;16.73;13.57;;;23.00;99.90;;;;;;5051755;28;20084;-78
2023/05/14 10:02:44;;;;;;;19.08;15.60;;;23.10;99.90;;;;;;5052530;28;20047;-77
2023/05/14 10:05:12;;;;;;;20.30;14.23;;;23.20;99.90;;;;;;5056511;28;20013;-78
2023/05/14 10:07:48;;;;;;;18.33;16.40;;;23.30;99.90;;;;;;5053858;28;20123;-79
2023/05/14 10:10:18;;;;;;;19.98;15.07;;;23.30;99.90;;;;;;5055113;28;20029;-78
2023/05/14 10:12:51;;;;;;;20.80;14.75;;;23.40;99.90;;;;;;5054960;28;20561;-78
2023/05/14 10:15:29;;;;;;;19.58;15.63;;;23.50;99.90;;;;;;5056496;28;20032;-78
2023/05/14 10:18:02;;;;;;;16.95;14.07;;;23.50;99.90;;;;;;5055641;28;20021;-78
2023/05/14 10:20:28;;;;;;;;;;;23.50;99.90;;;;;;5056105;28;20561;-79
2023/05/14 10:22:55;;;;;;;13.07;10.25;;;23.60;99.90;;;;;;5054874;28;19909;-80
2023/05/14 10:25:22;;;;;;;12.63;10.00;;;23.40;99.90;;;;;;5057287;28;20032;-78
2023/05/14 10:28:01;;;;;;;11.63;9.63;;;23.50;99.90;;;;;;5037065;28;20021;-78
2023/05/14 10:30:46;;;;;;;12.45;10.38;;;23.70;99.90;;;;;;5056060;28;20036;-79
2023/05/14 10:34:13;;;;;;;9.32;8.43;;;23.80;99.90;;;;;;5054380;28;20473;-78
2023/05/14 10:36:38;;;;;;;8.75;7.80;;;24.00;99.90;;;;;;4937674;28;20145;-78
2023/05/14 10:39:07;;;;;;;9.65;7.45;;;24.10;99.90;;;;;;5033843;28;20713;-78
2023/05/14 10:41:33;;;;;;;10.25;7.03;;;24.00;99.90;;;;;;5030858;28;20037;-76
2023/05/14 10:44:07;;;;;;;10.00;7.40;;;23.80;99.90;;;;;;5035201;28;20821;-77
2023/05/14 10:46:33;;;;;;;8.10;7.13;;;24.00;99.90;;;;;;5032549;28;20035;-76
2023/05/14 10:48:59;;;;;;;9.30;7.30;;;24.00;99.90;;;;;;5035707;28;20052;-77
2023/05/14 10:51:25;;;;;;;10.65;8.57;;;24.10;99.90;;;;;;5031418;28;20036;-78
2023/05/14 10:53:51;;;;;;;8.75;7.85;;;24.30;99.90;;;;;;5032178;28;20052;-78
2023/05/14 10:56:18;;;;;;;7.80;7.00;;;24.40;99.90;;;;;;5058377;28;20064;-80
2023/05/14 10:58:44;;;;;;;11.23;8.18;;;24.60;99.90;;;;;;5055839;28;20035;-79
2023/05/14 11:01:11;;;;;;;10.30;8.02;;;24.70;99.90;;;;;;5059521;28;20020;-78
2023/05/14 11:03:42;;;;;;;12.80;8.43;;;24.70;99.90;;;;;;5061539;28;20017;-76
2023/05/14 11:06:10;;;;;;;9.90;7.63;;;24.80;99.90;;;;;;5062501;28;20031;-77
2023/05/14 11:08:37;;;;;;;9.95;7.78;;;24.80;99.90;;;;;;5056980;28;20029;-78
2023/05/14 11:11:03;;;;;;;10.00;8.05;;;25.00;99.90;;;;;;5063291;28;20029;-78
2023/05/14 11:13:30;;;;;;;10.85;8.05;;;25.00;99.90;;;;;;5059051;28;20029;-79
2023/05/14 11:15:56;;;;;;;9.68;8.50;;;25.20;99.90;;;;;;5055671;28;20033;-79
2023/05/14 11:18:28;;;;;;;9.57;7.72;;;25.10;99.90;;;;;;5057534;28;20031;-78
2023/05/14 11:20:57;;;;;;;;;;;25.20;99.90;;;;;;5060029;28;20037;-79
2023/05/14 11:23:26;;;;;;;8.68;7.43;;;25.40;99.90;;;;;;5048483;28;20358;-79
2023/05/14 11:25:53;;;;;;;9.63;7.32;;;25.50;99.90;;;;;;5059304;28;20055;-80
2023/05/14 11:28:24;;;;;;;11.70;7.38;;;25.20;99.90;;;;;;5060421;28;20112;-83
2023/05/14 11:30:51;;;;;;;8.43;6.57;;;24.80;99.90;;;;;;5061344;28;20095;-84
2023/05/14 11:33:18;;;;;;;9.75;6.57;;;24.80;99.90;;;;;;5046797;28;20029;-80
2023/05/14 11:35:45;;;;;;;7.15;6.28;;;24.90;99.90;;;;;;5060872;28;20420;-83
2023/05/14 11:38:19;;;;;;;9.93;7.07;;;24.80;99.90;;;;;;5059370;28;20021;-79
2023/05/14 11:40:55;;;;;;;9.18;6.65;;;24.90;99.90;;;;;;5066951;28;20031;-78
2023/05/14 11:43:22;;;;;;;12.48;7.00;;;24.80;99.90;;;;;;5062731;28;20029;-79
2023/05/14 11:45:52;;;;;;;9.15;6.35;;;24.50;99.90;;;;;;5059587;28;20032;-79
2023/05/14 11:48:18;;;;;;;11.20;6.18;;;24.00;99.90;;;;;;5056772;28;20028;-75
2023/05/14 11:50:49;;;;;;;9.00;6.70;;;24.10;99.90;;;;;;5059795;28;20052;-77
2023/05/14 11:53:19;;;;;;;7.93;6.82;;;24.10;99.90;;;;;;5056061;28;20051;-76
2023/05/14 11:55:46;;;;;;;7.00;6.40;;;23.70;99.90;;;;;;5058658;28;20029;-77
2023/05/14 11:58:12;;;;;;;9.25;7.05;;;23.70;99.90;;;;;;5042354;28;20021;-76
2023/05/14 12:00:39;;;;;;;11.10;7.38;;;23.60;99.90;;;;;;5053273;28;20033;-77
2023/05/14 12:03:05;;;;;;;10.05;6.93;;;23.50;99.90;;;;;;5054193;28;20028;-77
2023/05/14 12:05:31;;;;;;;8.00;7.20;;;23.40;99.90;;;;;;5053671;28;20024;-76
2023/05/14 12:07:56;;;;;;;12.32;8.10;;;23.40;99.90;;;;;;5057087;28;20021;-77
2023/05/14 12:10:22;;;;;;;12.07;8.70;;;23.30;99.90;;;;;;5057946;28;20087;-76
2023/05/14 12:12:48;;;;;;;9.73;7.97;;;23.30;99.90;;;;;;5057643;28;20037;-76
2023/05/14 12:15:15;;;;;;;9.20;6.28;;;23.30;99.90;;;;;;5059720;28;20583;-76
2023/05/14 12:17:41;;;;;;;7.57;6.15;;;23.10;99.90;;;;;;5061347;28;20048;-76
2023/05/14 12:20:12;;;;;;;8.40;6.10;;;23.60;99.90;;;;;;5061536;28;20075;-76
2023/05/14 12:22:40;;;;;;;8.90;6.38;;;24.10;99.90;;;;;;5059106;28;20036;-77
2023/05/14 12:25:12;;;;;;;12.68;6.68;;;24.50;99.90;;;;;;5052505;28;20603;-77
2023/05/14 12:27:38;;;;;;;7.90;6.95;;;24.70;99.90;;;;;;5058747;28;20058;-76
2023/05/14 12:30:07;;;;;;;9.50;5.40;;;25.00;99.90;;;;;;5053666;28;20020;-77
2023/05/14 12:32:33;;;;;;;8.73;5.78;;;25.10;99.90;;;;;;5060452;28;20013;-77